Terminal Aerodrome Forecast
Issued by NWS

Home | Current Version | Previous Version | Text Only | Print | Product List | Glossary On
Versions: 1 2 3 4 5 6 7 8 9 10 11 12 13 14 15 16 17 18
877
FTUS43 KUNR 280521
TAFGCC
TAF
KGCC 280521Z 2806/2906 36005KT 2SM -SN OVC003
     FM281800 04012KT P6SM VCSH OVC015
     FM282100 04008KT P6SM OVC025
     FM290100 03008KT P6SM OVC035
     FM290300 36004KT P6SM OVC080
     FM290500 31004KT P6SM BKN110
      AMD NOT SKED=

USA.gov is the U.S. government's official web portal to all federal, state and local government web resources and services.